Time;durP1;ratioP1;P1;durP2;ratioP2;P2;SDS_P1;SDS_P2;PMS_P1;PMS_P2;Temp;Humidity;BMP_temperature;BMP_pressure;BME280_temperature;BME280_humidity;BME280_pressure;Samples;Min_cycle;Max_cycle;Signal;HPM_P1;HPM_P2
2023/01/02 00:01:27;;;;;;;11.07;5.30;;;;;;;11.20;100.00;100926.78;4896281;29;20020;-67
2023/01/02 00:03:56;;;;;;;8.88;4.82;;;;;;;11.23;100.00;100931.19;4905296;29;20039;-68
2023/01/02 00:06:22;;;;;;;11.90;5.55;;;;;;;11.24;100.00;100918.19;4902757;29;20023;-68
2023/01/02 00:08:47;;;;;;;11.13;5.38;;;;;;;11.26;100.00;100937.34;4891751;29;20024;-68
2023/01/02 00:11:12;;;;;;;11.50;5.30;;;;;;;11.27;100.00;100927.81;4901659;29;20024;-68
2023/01/02 00:13:38;;;;;;;11.15;4.95;;;;;;;11.28;100.00;100942.59;4908398;29;20047;-68
2023/01/02 00:16:03;;;;;;;10.55;5.05;;;;;;;11.27;100.00;100933.91;4904411;29;20263;-68
2023/01/02 00:18:29;;;;;;;9.77;5.25;;;;;;;11.26;100.00;100932.13;4903539;29;20031;-68
2023/01/02 00:20:54;;;;;;;9.75;5.20;;;;;;;11.27;100.00;100927.81;4925428;29;20025;-68
2023/01/02 00:23:19;;;;;;;10.80;5.50;;;;;;;11.27;100.00;100925.19;4902683;29;20025;-68
2023/01/02 00:25:47;;;;;;;12.50;5.50;;;;;;;11.28;100.00;100919.09;4904721;29;20044;-68
2023/01/02 00:28:12;;;;;;;10.43;5.53;;;;;;;11.27;100.00;100933.91;4907225;29;20032;-67
2023/01/02 00:30:37;;;;;;;12.07;5.60;;;;;;;11.28;100.00;100932.16;4902881;29;20037;-68
2023/01/02 00:33:03;;;;;;;12.48;5.82;;;;;;;11.28;100.00;100920.00;4906090;29;20021;-68
2023/01/02 00:35:29;;;;;;;13.13;5.72;;;;;;;11.28;100.00;100914.78;4907662;29;20048;-68
2023/01/02 00:37:54;;;;;;;11.02;5.60;;;;;;;11.25;100.00;100912.13;4899919;29;20016;-68
2023/01/02 00:40:19;;;;;;;12.73;5.68;;;;;;;11.24;100.00;100905.13;4902671;29;20168;-68
2023/01/02 00:42:45;;;;;;;13.05;5.47;;;;;;;11.25;100.00;100908.63;4904086;29;20165;-68
2023/01/02 00:45:10;;;;;;;10.75;5.50;;;;;;;11.25;100.00;100909.50;4907803;29;20259;-68
2023/01/02 00:47:35;;;;;;;12.25;5.47;;;;;;;11.28;100.00;100908.69;4907775;29;20035;-68
2023/01/02 00:50:01;;;;;;;12.25;5.63;;;;;;;11.29;100.00;100907.84;4897612;29;20284;-67
2023/01/02 00:52:26;;;;;;;11.98;5.22;;;;;;;11.33;100.00;100903.59;4907339;29;20278;-67
2023/01/02 00:54:52;;;;;;;9.70;5.25;;;;;;;11.36;100.00;100907.13;4900669;29;20024;-68
2023/01/02 00:57:17;;;;;;;10.48;5.00;;;;;;;11.38;100.00;100901.94;4903197;29;20048;-68
2023/01/02 00:59:42;;;;;;;11.68;5.22;;;;;;;11.41;100.00;100895.06;4907250;29;20044;-68
2023/01/02 01:02:08;;;;;;;10.70;5.63;;;;;;;11.42;100.00;100885.50;4896692;29;20032;-68
2023/01/02 01:04:34;;;;;;;11.57;5.20;;;;;;;11.44;100.00;100886.41;4901306;29;20274;-68
2023/01/02 01:07:00;;;;;;;10.65;4.75;;;;;;;11.45;100.00;100881.22;4901798;29;20256;-68
2023/01/02 01:09:25;;;;;;;11.82;5.28;;;;;;;11.52;100.00;100889.19;4898370;29;20096;-68
2023/01/02 01:11:50;;;;;;;11.68;5.30;;;;;;;11.55;100.00;100877.06;4903633;29;20031;-68
2023/01/02 01:14:15;;;;;;;8.93;4.75;;;;;;;11.59;100.00;100883.25;4906001;29;20043;-68
2023/01/02 01:16:41;;;;;;;8.52;4.95;;;;;;;11.61;100.00;100874.56;4898286;29;20041;-67
2023/01/02 01:19:06;;;;;;;10.27;4.75;;;;;;;11.64;100.00;100885.09;4901480;29;20032;-68
2023/01/02 01:21:31;;;;;;;9.80;4.90;;;;;;;11.66;100.00;100880.78;4901901;29;20033;-68
2023/01/02 01:23:57;;;;;;;13.05;5.47;;;;;;;11.67;100.00;100884.25;4906364;29;20270;-68
2023/01/02 01:26:23;;;;;;;8.98;4.78;;;;;;;11.67;100.00;100881.66;4905072;29;20028;-67
2023/01/02 01:28:52;;;;;;;11.65;4.93;;;;;;;11.69;100.00;100892.13;4903955;29;20176;-68
2023/01/02 01:31:17;;;;;;;11.35;4.93;;;;;;;11.71;100.00;100882.59;4904156;29;20020;-67
2023/01/02 01:33:43;;;;;;;10.18;4.53;;;;;;;11.73;100.00;100881.78;4906917;29;20037;-68
2023/01/02 01:36:14;;;;;;;11.70;5.00;;;;;;;11.73;100.00;100883.50;4904816;29;20033;-68
2023/01/02 01:38:41;;;;;;;10.05;5.07;;;;;;;11.73;100.00;100878.28;4906315;29;20028;-68
2023/01/02 01:41:07;;;;;;;11.30;5.05;;;;;;;11.75;100.00;100884.44;4904585;29;20032;-68
2023/01/02 01:43:44;;;;;;;10.65;4.93;;;;;;;11.74;100.00;100887.88;4902550;29;20037;-67
2023/01/02 01:46:21;;;;;;;10.93;4.97;;;;;;;11.77;100.00;100893.16;4905500;29;20024;-68
2023/01/02 01:48:52;;;;;;;16.00;4.78;;;;;;;11.77;100.00;100890.53;4904693;29;20025;-68
2023/01/02 01:51:18;;;;;;;10.48;4.53;;;;;;;11.78;100.00;100900.16;4894942;29;20529;-68
2023/01/02 01:53:45;;;;;;;9.93;4.57;;;;;;;11.77;100.00;100899.25;4903524;29;20024;-68
2023/01/02 01:56:12;;;;;;;9.30;4.40;;;;;;;11.77;100.00;100912.28;4899388;29;20028;-68
2023/01/02 01:58:42;;;;;;;12.90;4.60;;;;;;;11.75;100.00;100903.56;4904097;29;20080;-68
2023/01/02 02:01:10;;;;;;;13.68;4.97;;;;;;;11.75;100.00;100902.69;4902019;29;20092;-68
2023/01/02 02:03:36;;;;;;;11.10;4.65;;;;;;;11.75;100.00;100905.31;4904931;29;20028;-68
2023/01/02 02:06:03;;;;;;;9.68;4.55;;;;;;;11.73;100.00;100907.91;4905041;29;20311;-68
2023/01/02 02:08:38;;;;;;;10.85;5.20;;;;;;;11.74;100.00;100903.53;4899606;29;20025;-68
2023/01/02 02:11:05;;;;;;;11.90;4.85;;;;;;;11.73;100.00;100905.28;4902218;29;20024;-68
2023/01/02 02:13:32;;;;;;;8.82;4.43;;;;;;;11.74;100.00;100908.75;4904751;29;20032;-67
2023/01/02 02:16:02;;;;;;;10.90;4.30;;;;;;;11.73;100.00;100902.66;4905449;29;20016;-68
2023/01/02 02:18:48;;;;;;;10.82;4.38;;;;;;;11.74;100.00;100908.75;4898158;29;20028;-68
2023/01/02 02:21:51;;;;;;;9.85;4.35;;;;;;;11.73;100.00;100901.78;4905876;29;20278;-68
2023/01/02 02:24:25;;;;;;;8.25;4.35;;;;;;;11.72;100.00;100908.72;4900250;29;20029;-68
2023/01/02 02:26:58;;;;;;;11.20;4.50;;;;;;;11.72;100.00;100906.13;4895207;29;20045;-68
2023/01/02 02:29:42;;;;;;;10.07;4.43;;;;;;;11.72;100.00;100907.88;4901328;29;20040;-68
2023/01/02 02:32:49;;;;;;;10.40;4.45;;;;;;;11.73;100.00;100913.13;4897554;29;20140;-68
2023/01/02 02:35:42;;;;;;;12.85;4.60;;;;;;;11.73;100.00;100907.91;4895225;29;20033;-68
2023/01/02 02:38:31;;;;;;;12.02;4.97;;;;;;;11.72;100.00;100903.50;4899634;29;20036;-63
2023/01/02 02:41:18;;;;;;;9.38;4.55;;;;;;;11.71;100.00;100906.09;4898815;29;20032;-63
2023/01/02 02:44:18;;;;;;;8.68;4.28;;;;;;;11.72;100.00;100911.34;4903369;29;20279;-63
2023/01/02 02:46:55;;;;;;;12.50;4.50;;;;;;;11.74;100.00;100900.94;4899685;29;20287;-62
2023/01/02 02:49:48;;;;;;;10.13;4.30;;;;;;;11.76;100.00;100899.22;4903889;29;20035;-62
2023/01/02 02:52:21;;;;;;;9.35;4.13;;;;;;;11.77;100.00;100907.06;4903158;29;20024;-63
2023/01/02 02:55:13;;;;;;;10.55;3.95;;;;;;;11.79;100.00;100907.13;4905925;29;20056;-62
2023/01/02 02:57:41;;;;;;;9.23;4.28;;;;;;;11.79;100.00;100909.75;4903462;29;20020;-62
2023/01/02 03:00:11;;;;;;;14.38;4.40;;;;;;;11.77;100.00;100901.84;4903678;29;20092;-62
2023/01/02 03:02:36;;;;;;;10.70;4.22;;;;;;;11.79;100.00;100904.53;4900694;29;20032;-62
2023/01/02 03:05:04;;;;;;;11.45;4.20;;;;;;;11.80;100.00;100903.66;4903716;29;20032;-63
2023/01/02 03:07:48;;;;;;;8.85;4.00;;;;;;;11.80;100.00;100901.94;4899152;29;20124;-62
2023/01/02 03:10:27;;;;;;;10.50;4.50;;;;;;;11.80;100.00;100898.44;4902085;29;20052;-62
2023/01/02 03:13:33;;;;;;;11.93;4.68;;;;;;;11.80;100.00;100898.44;4899285;29;20329;-63
2023/01/02 03:16:05;;;;;;;10.05;4.32;;;;;;;11.78;100.00;100895.78;4893622;29;20112;-63
2023/01/02 03:18:36;;;;;;;8.27;4.20;;;;;;;11.76;100.00;100897.50;4906672;29;20020;-63
2023/01/02 03:21:09;;;;;;;10.45;4.03;;;;;;;11.75;100.00;100889.66;4902525;29;20036;-62
2023/01/02 03:23:41;;;;;;;8.32;4.10;;;;;;;11.73;100.00;100896.56;4909431;29;20095;-62
2023/01/02 03:26:07;;;;;;;10.23;4.75;;;;;;;11.73;100.00;100891.34;4905636;29;20044;-62
2023/01/02 03:28:36;;;;;;;10.25;4.22;;;;;;;11.72;100.00;100894.81;4899636;29;20278;-62
2023/01/02 03:31:04;;;;;;;11.88;4.32;;;;;;;11.69;100.00;100890.41;4901384;29;20049;-63
2023/01/02 03:33:34;;;;;;;8.35;3.92;;;;;;;11.68;100.00;100888.63;4904209;29;20220;-62
2023/01/02 03:36:05;;;;;;;11.38;4.57;;;;;;;11.67;100.00;100897.31;4896904;29;20031;-62
2023/01/02 03:38:37;;;;;;;8.65;4.45;;;;;;;11.68;100.00;100901.69;4904315;29;20025;-68
2023/01/02 03:41:10;;;;;;;10.93;4.10;;;;;;;11.69;100.00;100899.94;4901311;29;20089;-68
2023/01/02 03:43:40;;;;;;;7.63;4.22;;;;;;;11.71;100.00;100908.72;4905140;29;20283;-68
2023/01/02 03:46:18;;;;;;;8.63;4.60;;;;;;;11.73;100.00;100907.00;4908095;29;20084;-68
2023/01/02 03:49:16;;;;;;;10.57;4.25;;;;;;;11.75;100.00;100913.16;4901927;29;20161;-68
2023/01/02 03:51:41;;;;;;;10.07;4.40;;;;;;;11.75;100.00;100915.75;4904148;29;20160;-68
2023/01/02 03:54:08;;;;;;;10.30;4.60;;;;;;;11.75;100.00;100910.53;4908281;29;20315;-68
2023/01/02 03:56:56;;;;;;;12.23;4.20;;;;;;;11.75;100.00;100918.38;4903254;29;20040;-68
2023/01/02 03:59:45;;;;;;;9.52;4.05;;;;;;;11.74;100.00;100917.47;4907371;29;20072;-68
2023/01/02 04:02:25;;;;;;;8.57;3.97;;;;;;;11.74;100.00;100922.69;4903361;29;20075;-68
2023/01/02 04:04:57;;;;;;;8.40;4.18;;;;;;;11.74;100.00;100917.47;4903370;29;20035;-68
2023/01/02 04:07:42;;;;;;;9.23;4.30;;;;;;;11.76;100.00;100922.72;4907217;29;20044;-68
2023/01/02 04:10:11;;;;;;;9.95;4.28;;;;;;;11.74;100.00;100930.50;4901374;29;20183;-68
2023/01/02 04:12:40;;;;;;;14.48;3.75;;;;;;;11.74;100.00;100922.69;4898020;29;20171;-68
2023/01/02 04:15:08;;;;;;;11.70;4.18;;;;;;;11.73;100.00;100926.16;4907356;29;20284;-68
2023/01/02 04:17:40;;;;;;;11.63;4.25;;;;;;;11.71;100.00;100925.25;4906698;29;20180;-68
2023/01/02 04:20:10;;;;;;;11.38;4.43;;;;;;;11.70;100.00;100928.69;4898801;29;20024;-68
2023/01/02 04:22:53;;;;;;;12.38;4.80;;;;;;;11.69;100.00;100932.16;4907545;29;20087;-68
2023/01/02 04:25:19;;;;;;;8.85;4.00;;;;;;;11.68;100.00;100943.44;4900465;29;20282;-67
2023/01/02 04:27:58;;;;;;;8.73;4.60;;;;;;;11.65;100.00;100949.47;4905033;29;20292;-68
2023/01/02 04:30:25;;;;;;;11.88;4.30;;;;;;;11.65;100.00;100940.78;4906631;29;20024;-68
2023/01/02 04:32:52;;;;;;;8.68;4.32;;;;;;;11.64;100.00;100939.91;4894983;29;20009;-68
2023/01/02 04:35:22;;;;;;;8.77;4.35;;;;;;;11.65;100.00;100946.00;4906572;29;20677;-67
2023/01/02 04:37:47;;;;;;;8.68;3.60;;;;;;;11.64;100.00;100941.63;4903861;29;20055;-68
2023/01/02 04:40:16;;;;;;;7.75;4.32;;;;;;;11.63;100.00;100948.56;4904202;29;20207;-68
2023/01/02 04:42:41;;;;;;;8.00;4.35;;;;;;;11.63;100.00;100952.94;4905017;29;20039;-68
2023/01/02 04:45:07;;;;;;;13.45;4.35;;;;;;;11.63;100.00;100952.94;4904985;29;20016;-68
2023/01/02 04:47:32;;;;;;;10.23;4.05;;;;;;;11.65;100.00;100951.22;4903021;29;20036;-68
2023/01/02 04:49:58;;;;;;;10.93;4.30;;;;;;;11.63;100.00;100951.19;4903040;29;20028;-68
2023/01/02 04:52:23;;;;;;;9.50;4.32;;;;;;;11.65;100.00;100956.44;4903428;29;20032;-68
2023/01/02 04:54:48;;;;;;;8.63;3.85;;;;;;;11.64;100.00;100954.66;4907689;29;20048;-68
2023/01/02 04:57:13;;;;;;;10.88;3.95;;;;;;;11.65;100.00;100962.53;4904915;29;20027;-68
2023/01/02 04:59:41;;;;;;;7.65;4.68;;;;;;;11.65;100.00;100959.06;4907077;29;20283;-68
2023/01/02 05:02:07;;;;;;;10.60;4.63;;;;;;;11.65;100.00;100966.88;4905035;29;20278;-67
2023/01/02 05:04:32;;;;;;;11.57;4.53;;;;;;;11.64;100.00;100975.56;4905031;29;20028;-68
2023/01/02 05:06:57;;;;;;;9.80;4.18;;;;;;;11.64;100.00;100971.22;4907498;29;20036;-67
2023/01/02 05:09:23;;;;;;;8.35;4.13;;;;;;;11.65;100.00;100978.19;4907289;29;20025;-68
2023/01/02 05:11:48;;;;;;;9.60;4.30;;;;;;;11.65;100.00;100974.72;4907092;29;20024;-68
2023/01/02 05:14:13;;;;;;;8.70;3.90;;;;;;;11.66;100.00;100964.31;4900546;29;20189;-68
2023/01/02 05:16:38;;;;;;;9.10;4.40;;;;;;;11.66;100.00;100973.88;4901454;29;20028;-68
2023/01/02 05:19:04;;;;;;;7.45;3.83;;;;;;;11.66;100.00;100969.53;4904899;29;20025;-68
2023/01/02 05:24:13;;;;;;;8.98;3.90;;;;;;;11.70;100.00;100974.81;4902645;29;20372;-68
2023/01/02 05:26:38;;;;;;;8.40;3.92;;;;;;;11.70;100.00;100974.81;4901869;29;20021;-68
2023/01/02 05:29:03;;;;;;;8.32;3.92;;;;;;;11.71;100.00;100973.97;4903693;29;20182;-68
2023/01/02 05:31:29;;;;;;;8.70;3.70;;;;;;;11.70;100.00;100983.50;4906761;29;20016;-68
2023/01/02 05:33:55;;;;;;;6.20;3.42;;;;;;;11.70;100.00;100990.47;4903118;29;20032;-67
2023/01/02 05:36:22;;;;;;;6.78;3.78;;;;;;;11.69;100.00;100994.81;4904418;29;20027;-68
2023/01/02 05:38:47;;;;;;;10.23;3.60;;;;;;;11.69;100.00;100992.22;4906949;29;20260;-68
2023/01/02 05:41:14;;;;;;;8.25;3.35;;;;;;;11.70;100.00;100999.16;4919396;29;20084;-68
2023/01/02 05:43:39;;;;;;;6.30;3.00;;;;;;;11.72;100.00;101009.66;4894982;29;20057;-68
2023/01/02 05:46:13;;;;;;;7.18;3.25;;;;;;;11.71;100.00;101011.38;4898771;29;20040;-68
2023/01/02 05:48:39;;;;;;;7.63;3.00;;;;;;;11.71;100.00;101010.50;4899491;29;20045;-67
2023/01/02 05:51:06;;;;;;;8.60;3.20;;;;;;;11.71;100.00;101024.44;4899641;29;20035;-68
2023/01/02 05:53:31;;;;;;;7.80;3.42;;;;;;;11.71;100.00;101018.34;4905060;29;20021;-68
2023/01/02 05:56:27;;;;;;;8.02;3.17;;;;;;;11.72;100.00;101020.09;4904977;29;20171;-68
2023/01/02 05:58:52;;;;;;;5.93;3.28;;;;;;;11.72;100.00;101020.09;4896139;29;20037;-68
2023/01/02 06:01:28;;;;;;;8.48;3.13;;;;;;;11.71;100.00;101019.22;4902919;29;20285;-67
2023/01/02 06:03:56;;;;;;;7.38;3.13;;;;;;;11.69;100.00;101015.69;4903629;29;20029;-69
2023/01/02 06:06:29;;;;;;;9.15;3.30;;;;;;;11.70;100.00;101019.19;4905546;29;20021;-68
2023/01/02 06:08:54;;;;;;;7.15;3.20;;;;;;;11.68;100.00;101024.38;4898708;29;20347;-68
2023/01/02 06:11:19;;;;;;;5.88;2.80;;;;;;;11.68;100.00;101033.94;4899000;29;20028;-68
2023/01/02 06:13:45;;;;;;;6.63;3.55;;;;;;;11.66;100.00;101041.75;4903765;29;20012;-68
2023/01/02 06:16:10;;;;;;;10.05;3.50;;;;;;;11.64;100.00;101049.53;4905343;29;20028;-68
2023/01/02 06:18:37;;;;;;;8.70;3.45;;;;;;;11.59;100.00;101045.94;4901747;29;20046;-68
2023/01/02 06:21:06;;;;;;;7.45;3.30;;;;;;;11.56;100.00;101058.91;4905878;29;20025;-68
2023/01/02 06:23:31;;;;;;;6.83;2.80;;;;;;;11.54;100.00;101063.19;4904609;29;20080;-69
2023/01/02 06:26:11;;;;;;;6.65;3.40;;;;;;;11.49;100.00;101067.44;4908041;29;20087;-68
2023/01/02 06:28:38;;;;;;;7.40;3.10;;;;;;;11.46;100.00;101088.25;4906518;29;20024;-69
2023/01/02 06:31:08;;;;;;;6.22;3.03;;;;;;;11.42;100.00;101100.31;4904483;29;20029;-69
2023/01/02 06:33:34;;;;;;;4.85;2.42;;;;;;;11.31;100.00;101113.13;4897897;29;20115;-69
2023/01/02 06:36:04;;;;;;;3.50;1.40;;;;;;;11.13;100.00;101120.47;4898404;29;20024;-69
2023/01/02 06:38:30;;;;;;;2.58;1.02;;;;;;;10.96;100.00;101141.78;4895086;29;20024;-69
2023/01/02 06:40:58;;;;;;;2.20;1.00;;;;;;;10.81;100.00;101138.75;4893069;29;20311;-69
2023/01/02 06:43:24;;;;;;;3.03;1.00;;;;;;;10.68;100.00;101137.53;4898725;29;20034;-68
2023/01/02 06:45:49;;;;;;;2.25;1.05;;;;;;;10.57;100.00;101141.53;4902584;29;20028;-69
2023/01/02 06:48:15;;;;;;;2.80;1.15;;;;;;;10.48;100.00;101152.59;4895249;29;20290;-68
2023/01/02 06:50:42;;;;;;;3.63;1.30;;;;;;;10.42;100.00;101168.06;4904169;29;20124;-68
2023/01/02 06:53:07;;;;;;;1.98;0.90;;;;;;;10.36;100.00;101170.50;4905761;29;20020;-68
2023/01/02 06:55:32;;;;;;;2.53;1.20;;;;;;;10.30;100.00;101171.16;4899754;29;20036;-68
2023/01/02 06:57:57;;;;;;;2.20;1.00;;;;;;;10.23;100.00;101179.63;4898062;29;20091;-68
2023/01/02 07:00:23;;;;;;;1.65;0.80;;;;;;;10.14;100.00;101188.03;4905254;29;20045;-69
2023/01/02 07:02:48;;;;;;;2.78;0.60;;;;;;;10.04;99.93;101186.84;4906253;29;20025;-67
2023/01/02 07:05:13;;;;;;;1.77;0.70;;;;;;;9.98;100.00;101198.78;4897468;29;20032;-68
2023/01/02 07:07:38;;;;;;;1.55;0.63;;;;;;;9.93;100.00;101214.25;4891140;29;20268;-69
2023/01/02 07:10:04;;;;;;;2.10;0.80;;;;;;;9.89;100.00;101217.59;4903487;29;20183;-68
2023/01/02 07:12:29;;;;;;;2.15;0.98;;;;;;;9.88;100.00;101228.88;4903450;29;20076;-69
2023/01/02 07:14:55;;;;;;;2.10;0.98;;;;;;;9.84;100.00;101233.06;4899106;29;20032;-69
2023/01/02 07:17:20;;;;;;;2.63;0.95;;;;;;;9.80;100.00;101244.19;4899667;29;20023;-68
2023/01/02 07:19:45;;;;;;;2.88;1.20;;;;;;;9.74;100.00;101246.59;4901635;29;20047;-68
2023/01/02 07:22:10;;;;;;;3.17;1.52;;;;;;;9.70;100.00;101258.66;4902348;29;20092;-68
2023/01/02 07:24:36;;;;;;;3.03;1.30;;;;;;;9.64;100.00;101265.34;4905964;29;20025;-69
2023/01/02 07:27:01;;;;;;;4.72;1.60;;;;;;;9.59;100.00;101270.41;4898995;29;20021;-69
2023/01/02 07:29:26;;;;;;;3.97;1.77;;;;;;;9.55;100.00;101274.59;4905610;29;20024;-68
2023/01/02 07:31:52;;;;;;;3.45;1.65;;;;;;;9.51;100.00;101283.13;4903965;29;20072;-69
2023/01/02 07:34:17;;;;;;;3.92;1.80;;;;;;;9.49;100.00;101281.31;4896103;29;20045;-69
2023/01/02 07:36:42;;;;;;;4.00;1.90;;;;;;;9.48;100.00;101297.75;4902808;29;20071;-63
2023/01/02 07:39:07;;;;;;;3.97;2.08;;;;;;;9.46;100.00;101295.09;4896123;29;20171;-62
2023/01/02 07:41:33;;;;;;;4.00;1.95;;;;;;;9.47;100.00;101295.97;4896294;29;20084;-62
2023/01/02 07:43:58;;;;;;;4.22;2.08;;;;;;;9.48;100.00;101302.94;4900126;29;20316;-63
2023/01/02 07:46:24;;;;;;;5.28;2.05;;;;;;;9.48;100.00;101303.81;4899250;29;20048;-63
2023/01/02 07:48:49;;;;;;;4.88;2.30;;;;;;;9.47;100.00;101307.28;4898900;29;20032;-62
2023/01/02 07:51:15;;;;;;;5.22;2.40;;;;;;;9.45;100.00;101319.34;4900339;29;20035;-63
2023/01/02 07:53:41;;;;;;;5.00;2.83;;;;;;;9.43;100.00;101327.91;4900110;29;20023;-63
2023/01/02 07:56:07;;;;;;;5.93;2.75;;;;;;;9.39;100.00;101340.78;4899062;29;20279;-63
2023/01/02 07:58:32;;;;;;;6.75;3.05;;;;;;;9.34;100.00;101341.47;4891990;29;20092;-62
2023/01/02 08:01:04;;;;;;;5.70;2.90;;;;;;;9.31;100.00;101344.84;4901484;29;20024;-63
2023/01/02 08:03:30;;;;;;;6.85;3.20;;;;;;;9.30;100.00;101347.38;4901754;29;20020;-62
2023/01/02 08:06:04;;;;;;;5.88;3.25;;;;;;;9.30;100.00;101361.28;4903440;29;20068;-63
2023/01/02 08:08:29;;;;;;;6.25;3.58;;;;;;;9.30;100.00;101362.97;4903145;29;20201;-62
2023/01/02 08:10:55;;;;;;;7.30;3.75;;;;;;;9.28;100.00;101373.31;4902424;29;20127;-62
2023/01/02 08:13:20;;;;;;;7.43;4.22;;;;;;;9.29;100.00;101376.81;4900926;29;21461;-62
2023/01/02 08:15:45;;;;;;;9.05;4.95;;;;;;;9.28;100.00;101385.44;4905273;29;20069;-63
2023/01/02 08:18:10;;;;;;;8.80;5.22;;;;;;;9.27;100.00;101397.56;4904971;29;20020;-63
2023/01/02 08:20:36;;;;;;;9.57;5.53;;;;;;;9.27;100.00;101402.78;4903784;29;20112;-62
2023/01/02 08:23:01;;;;;;;9.57;5.40;;;;;;;9.25;100.00;101407.00;4906561;29;20020;-63
2023/01/02 08:25:26;;;;;;;9.52;5.32;;;;;;;9.22;100.00;101407.81;4899366;29;20092;-62
2023/01/02 08:27:52;;;;;;;9.82;5.47;;;;;;;9.19;100.00;101407.66;4907724;29;20121;-62
2023/01/02 08:30:17;;;;;;;9.50;5.93;;;;;;;9.18;100.00;101412.81;4903446;29;20035;-63
2023/01/02 08:32:43;;;;;;;9.48;5.60;;;;;;;9.16;100.00;101420.56;4908404;29;20178;-62
2023/01/02 08:35:08;;;;;;;10.13;5.97;;;;;;;9.14;100.00;101423.91;4906555;29;20071;-62
2023/01/02 08:37:34;;;;;;;8.35;5.20;;;;;;;9.11;100.00;101422.09;4908131;29;20033;-63
2023/01/02 08:39:59;;;;;;;8.57;5.35;;;;;;;9.09;100.00;101423.75;4906041;29;20048;-63
2023/01/02 08:42:24;;;;;;;8.77;5.28;;;;;;;9.06;100.00;101428.81;4896976;29;20032;-62
2023/01/02 08:44:50;;;;;;;9.35;5.75;;;;;;;9.02;100.00;101437.31;4901003;29;20025;-63
2023/01/02 08:47:15;;;;;;;8.43;4.95;;;;;;;9.00;100.00;101442.47;4904488;29;20027;-62
2023/01/02 08:49:40;;;;;;;8.43;5.47;;;;;;;8.99;100.00;101442.41;4906135;29;20072;-64
2023/01/02 08:52:06;;;;;;;9.35;5.70;;;;;;;8.98;100.00;101448.41;4906982;29;20024;-63
2023/01/02 08:54:31;;;;;;;8.50;5.40;;;;;;;8.97;100.00;101452.75;4902331;29;20024;-62
2023/01/02 08:56:56;;;;;;;9.20;5.82;;;;;;;8.97;100.00;101464.88;4900365;29;20032;-63
2023/01/02 08:59:24;;;;;;;8.32;5.43;;;;;;;8.96;100.00;101465.69;4902058;29;20031;-62
2023/01/02 09:01:49;;;;;;;9.63;5.10;;;;;;;8.93;100.00;101468.16;4905346;29;20040;-62
2023/01/02 09:04:15;;;;;;;9.00;4.88;;;;;;;8.91;100.00;101469.78;4905637;29;20036;-63
2023/01/02 09:06:42;;;;;;;8.90;5.20;;;;;;;8.91;100.00;101472.38;4906011;29;20016;-62
2023/01/02 09:09:09;;;;;;;9.77;4.93;;;;;;;8.90;100.00;101466.31;4908961;29;20043;-63
2023/01/02 09:11:36;;;;;;;7.45;4.82;;;;;;;8.90;100.00;101479.31;4909181;29;20052;-62
2023/01/02 09:14:03;;;;;;;8.65;4.97;;;;;;;8.91;100.00;101490.59;4906779;29;20076;-63
2023/01/02 09:16:28;;;;;;;8.07;5.10;;;;;;;8.86;100.00;101491.31;4905503;29;20270;-64
2023/01/02 09:18:55;;;;;;;9.00;5.03;;;;;;;8.88;100.00;101506.97;4900976;29;20065;-62
2023/01/02 09:21:20;;;;;;;9.35;5.22;;;;;;;8.88;100.00;101505.25;4902276;29;20035;-62
2023/01/02 09:23:46;;;;;;;8.88;5.35;;;;;;;8.88;100.00;101507.84;4901542;29;20024;-62
2023/01/02 09:26:12;;;;;;;7.88;4.57;;;;;;;8.87;100.00;101516.44;4901679;29;20024;-62
2023/01/02 09:28:37;;;;;;;8.70;4.80;;;;;;;8.88;100.00;101523.44;4904364;29;20040;-63
2023/01/02 09:31:07;;;;;;;9.48;4.93;;;;;;;8.86;100.00;101527.69;4902948;29;20040;-62
2023/01/02 09:33:33;;;;;;;7.43;4.43;;;;;;;8.85;100.00;101525.91;4906822;29;20052;-63
2023/01/02 09:36:04;;;;;;;7.45;4.10;;;;;;;8.90;100.00;101530.41;4902522;29;20045;-62
2023/01/02 09:38:29;;;;;;;8.88;4.60;;;;;;;8.90;100.00;101536.47;4899183;29;20029;-68
2023/01/02 09:40:57;;;;;;;8.18;4.22;;;;;;;8.93;100.00;101548.72;4902478;29;20123;-68
2023/01/02 09:43:28;;;;;;;7.35;4.13;;;;;;;8.93;100.00;101540.94;4899007;29;20039;-68
2023/01/02 09:45:57;;;;;;;7.88;4.20;;;;;;;8.94;100.00;101547.91;4900181;29;20240;-68
2023/01/02 09:48:26;;;;;;;8.20;3.90;;;;;;;8.98;100.00;101542.00;4898412;29;20043;-67
2023/01/02 09:50:51;;;;;;;7.03;3.90;;;;;;;9.01;100.00;101544.75;4899460;29;20084;-68
2023/01/02 09:53:17;;;;;;;8.40;4.13;;;;;;;9.01;100.00;101553.41;4900277;29;20200;-68
2023/01/02 09:56:08;;;;;;;8.23;4.32;;;;;;;9.02;100.00;101559.50;4907030;29;20026;-68
2023/01/02 09:58:45;;;;;;;7.10;4.05;;;;;;;9.00;100.00;101555.97;4904485;29;20040;-68
2023/01/02 10:01:25;;;;;;;8.63;3.95;;;;;;;8.98;100.00;101558.50;4904539;29;20079;-68
2023/01/02 10:04:06;;;;;;;8.40;3.75;;;;;;;8.97;100.00;101556.72;4905261;29;20024;-68
2023/01/02 10:06:46;;;;;;;7.13;4.10;;;;;;;8.97;100.00;101554.09;4892802;29;20020;-68
2023/01/02 10:09:20;;;;;;;6.90;3.72;;;;;;;8.97;100.00;101561.03;4890502;29;20060;-68
2023/01/02 10:11:54;;;;;;;7.35;3.67;;;;;;;8.97;100.00;101574.03;4900317;29;20024;-68
2023/01/02 10:14:37;;;;;;;6.43;3.92;;;;;;;8.96;100.00;101569.66;4918680;29;20056;-68
2023/01/02 10:17:07;;;;;;;6.80;3.40;;;;;;;8.94;100.00;101571.31;4909108;29;20171;-67
2023/01/02 10:19:48;;;;;;;6.28;3.20;;;;;;;8.93;100.00;101567.78;4908844;29;20020;-68
2023/01/02 10:22:19;;;;;;;7.55;3.92;;;;;;;8.94;100.00;101576.50;4907230;29;20079;-67
2023/01/02 10:24:53;;;;;;;7.07;3.47;;;;;;;8.94;100.00;101573.91;4908066;29;20020;-68
2023/01/02 10:27:27;;;;;;;7.22;3.92;;;;;;;8.95;100.00;101566.16;4908492;29;20047;-68
2023/01/02 10:30:13;;;;;;;7.82;3.30;;;;;;;8.99;100.00;101572.38;4908592;29;20084;-68
2023/01/02 10:32:46;;;;;;;7.55;3.72;;;;;;;9.02;99.86;101569.88;4907824;29;20215;-68
2023/01/02 10:35:41;;;;;;;6.50;3.70;;;;;;;9.03;100.00;101582.06;4907607;29;20063;-68
2023/01/02 10:38:13;;;;;;;6.65;3.70;;;;;;;9.03;100.00;101590.75;4908413;29;20202;-68
2023/01/02 10:40:42;;;;;;;7.32;4.07;;;;;;;9.06;100.00;101587.41;4907663;29;20032;-68
2023/01/02 10:43:10;;;;;;;8.77;4.45;;;;;;;9.05;99.24;101598.59;4907699;29;20024;-68
2023/01/02 10:45:36;;;;;;;9.88;5.03;;;;;;;9.05;99.89;101590.81;4895188;29;20028;-68
2023/01/02 10:48:01;;;;;;;6.88;4.38;;;;;;;9.09;99.90;101584.91;4900653;29;20059;-67
2023/01/02 10:50:31;;;;;;;7.05;4.28;;;;;;;9.13;100.00;101580.75;4906238;29;20335;-67
2023/01/02 10:53:20;;;;;;;8.45;4.72;;;;;;;9.13;100.00;101584.22;4906975;29;20047;-67
2023/01/02 10:55:46;;;;;;;8.43;5.03;;;;;;;9.12;99.77;101590.25;4903149;29;20028;-67
2023/01/02 10:58:23;;;;;;;9.60;4.75;;;;;;;9.10;99.96;101589.31;4893469;29;20306;-67
2023/01/02 11:01:12;;;;;;;8.48;5.03;;;;;;;9.12;100.00;101590.25;4906159;29;20043;-66
2023/01/02 11:03:38;;;;;;;10.45;5.80;;;;;;;9.14;100.00;101604.22;4904489;29;20039;-67
2023/01/02 11:06:04;;;;;;;8.65;5.63;;;;;;;9.13;100.00;101602.44;4904401;29;20024;-67
2023/01/02 11:08:36;;;;;;;9.75;5.55;;;;;;;9.12;100.00;101605.84;4898290;29;20286;-67
2023/01/02 11:11:16;;;;;;;10.35;5.75;;;;;;;9.17;100.00;101617.34;4902099;29;20025;-67
2023/01/02 11:13:48;;;;;;;;;;;;;;;9.23;100.00;101614.97;4902505;29;20179;-67
2023/01/02 11:16:15;;;;;;;10.85;5.75;;;;;;;9.21;100.00;101615.72;4891992;29;19910;-67
2023/01/02 11:18:50;;;;;;;11.63;6.43;;;;;;;9.21;100.00;101608.84;4906389;29;20096;-67
2023/01/02 11:21:24;;;;;;;10.90;6.15;;;;;;;9.22;99.75;101613.22;4904552;29;20048;-67
2023/01/02 11:23:55;;;;;;;11.65;7.13;;;;;;;9.22;100.00;101620.13;4908011;29;20027;-67
2023/01/02 11:26:26;;;;;;;11.95;6.60;;;;;;;9.23;99.83;101620.19;4895729;29;20021;-67
2023/01/02 11:28:54;;;;;;;13.90;7.03;;;;;;;9.25;100.00;101627.16;4897420;29;20325;-67
2023/01/02 11:31:21;;;;;;;13.15;7.05;;;;;;;9.25;99.32;101632.38;4906379;29;20080;-67
2023/01/02 11:33:46;;;;;;;12.48;7.28;;;;;;;9.23;99.58;101630.59;4904327;29;20021;-67